Terminal Aerodrome Forecast
Issued by NWS

Home | Current Version | Previous Version | Text Only | Print | Product List | Glossary On
Versions: 1 2 3 4 5 6 7 8 9 10 11 12 13 14 15 16 17
000
FTUS46 KSTO 222300
TAFSMF
TAF
KSMF 222338Z 2300/2324 34007KT P6SM SKC
     FM230800 33007KT 5SM BR SCT015 SCT250
     FM231000 33004KT 2SM BR SCT005 SCT250
      TEMPO 2312/2316 1/2SM FG OVC002
     FM232000 35005KT 4SM HZ SKC=

USA.gov is the U.S. government's official web portal to all federal, state and local government web resources and services.